Time;durP1;ratioP1;P1;durP2;ratioP2;P2;SDS_P1;SDS_P2;PMS_P1;PMS_P2;Temp;Humidity;BMP_temperature;BMP_pressure;BME280_temperature;BME280_humidity;BME280_pressure;Samples;Min_cycle;Max_cycle;Signal;HPM_P1;HPM_P2
2023/03/18 00:01:10;;;;;;;;;;;;;;;;;;4914687;29;19930;-78
2023/03/18 00:03:37;;;;;;;;;;;;;;;;;;4921118;29;20320;-78
2023/03/18 00:06:09;;;;;;;;;;;;;;;;;;4927339;29;19926;-79
2023/03/18 00:08:36;;;;;;;;;;;;;;;;;;4929260;29;19927;-78
2023/03/18 00:11:04;;;;;;;;;;;;;;;;;;4915202;29;20302;-78
2023/03/18 00:13:32;;;;;;;;;;;;;;;;;;4931630;29;19923;-79
2023/03/18 00:16:04;;;;;;;;;;;;;;;;;;4915850;29;20384;-78
2023/03/18 00:18:31;;;;;;;;;;;;;;;;;;4914967;29;19930;-78
2023/03/18 00:21:01;;;;;;;;;;;;;;;;;;4914426;29;19923;-78
2023/03/18 00:23:29;;;;;;;;;;;;;;;;;;4912354;29;19927;-79
2023/03/18 00:25:59;;;;;;;;;;;;;;;;;;4916233;29;19923;-79
2023/03/18 00:28:31;;;;;;;;;;;;;;;;;;4915052;29;19923;-79
2023/03/18 00:31:07;;;;;;;;;;;;;;;;;;4915582;29;19930;-79
2023/03/18 00:33:34;;;;;;;;;;;;;;;;;;4910012;29;19930;-79
2023/03/18 00:36:08;;;;;;;;;;;;;;;;;;4915224;29;19927;-79
2023/03/18 00:38:42;;;;;;;;;;;;;;;;;;4929455;29;20293;-79
2023/03/18 00:41:14;;;;;;;;;;;;;;;;;;4910303;29;19930;-79
2023/03/18 00:43:51;;;;;;;;;;;;;;;;;;4910784;29;19934;-79
2023/03/18 00:46:22;;;;;;;;;;;;;;;;;;4912720;29;19930;-79
2023/03/18 00:48:49;;;;;;;;;;;;;;;;;;4914669;29;19923;-79
2023/03/18 00:51:16;;;;;;;;;;;;;;;;;;4911886;29;19927;-79
2023/03/18 00:53:48;;;;;;;;;;;;;;;;;;4930008;29;19930;-79
2023/03/18 00:56:18;;;;;;;;;;;;;;;;;;4910249;29;20397;-79
2023/03/18 00:58:47;;;;;;;;;;;;;;;;;;4928419;29;19930;-78
2023/03/18 01:01:15;;;;;;;;;;;;;;;;;;4929182;29;19923;-78
2023/03/18 01:03:43;;;;;;;;;;;;;;;;;;4930191;29;19930;-79
2023/03/18 01:06:13;;;;;;;;;;;;;;;;;;4926504;29;19923;-79
2023/03/18 01:08:40;;;;;;;;;;;;;;;;;;4924609;29;19930;-79
2023/03/18 01:11:09;;;;;;;;;;;;;;;;;;4924463;29;19923;-78
2023/03/18 01:13:39;;;;;;;;;;;;;;;;;;4925767;29;20404;-79
2023/03/18 01:16:07;;;;;;;;;;;;;;;;;;4908301;29;20305;-79
2023/03/18 01:18:35;;;;;;;;;;;;;;;;;;4913419;29;19923;-79
2023/03/18 01:21:02;;;;;;;;;;;;;;;;;;4909269;29;20390;-79
2023/03/18 01:23:34;;;;;;;;;;;;;;;;;;4911978;29;19990;-79
2023/03/18 01:26:01;;;;;;;;;;;;;;;;;;4911903;29;19923;-79
2023/03/18 01:28:32;;;;;;;;;;;;;;;;;;4926305;29;19930;-79
2023/03/18 01:31:03;;;;;;;;;;;;;;;;;;4924143;29;20004;-79
2023/03/18 01:33:30;;;;;;;;;;;;;;;;;;4929471;29;19922;-78
2023/03/18 01:36:01;;;;;;;;;;;;;;;;;;4912485;29;19923;-79
2023/03/18 01:38:30;;;;;;;;;;;;;;;;;;4913775;29;19930;-78
2023/03/18 01:41:03;;;;;;;;;;;;;;;;;;4926856;29;19923;-78
2023/03/18 01:43:56;;;;;;;;;;;;;;;;;;4914420;29;19923;-79
2023/03/18 01:46:34;;;;;;;;;;;;;;;;;;4908891;29;19930;-79
2023/03/18 01:49:02;;;;;;;;;;;;;;;;;;4915467;29;19945;-77
2023/03/18 01:51:31;;;;;;;;;;;;;;;;;;4914185;29;19923;-77
2023/03/18 01:54:02;;;;;;;;;;;;;;;;;;4915364;29;20410;-78
2023/03/18 01:56:29;;;;;;;;;;;;;;;;;;4903776;29;20401;-78
2023/03/18 01:58:57;;;;;;;;;;;;;;;;;;4914268;29;20378;-78
2023/03/18 02:01:26;;;;;;;;;;;;;;;;;;4916060;29;19923;-78
2023/03/18 02:03:55;;;;;;;;;;;;;;;;;;4914393;29;19930;-79
2023/03/18 02:06:22;;;;;;;;;;;;;;;;;;4908580;29;19938;-79
2023/03/18 02:08:56;;;;;;;;;;;;;;;;;;4927649;29;21298;-79
2023/03/18 02:11:27;;;;;;;;;;;;;;;;;;4925543;29;19923;-78
2023/03/18 02:14:08;;;;;;;;;;;;;;;;;;4913554;29;20423;-78
2023/03/18 02:16:38;;;;;;;;;;;;;;;;;;4913373;29;20385;-78
2023/03/18 02:19:09;;;;;;;;;;;;;;;;;;4912409;29;19946;-79
2023/03/18 02:21:41;;;;;;;;;;;;;;;;;;4928842;29;19930;-78
2023/03/18 02:24:12;;;;;;;;;;;;;;;;;;4926908;29;20312;-78
2023/03/18 02:26:44;;;;;;;;;;;;;;;;;;4910265;29;19923;-78
2023/03/18 02:29:17;;;;;;;;;;;;;;;;;;4909395;29;19930;-78
2023/03/18 02:31:56;;;;;;;;;;;;;;;;;;4913221;29;20001;-78
2023/03/18 02:34:28;;;;;;;;;;;;;;;;;;4904872;29;19934;-79
2023/03/18 02:36:58;;;;;;;;;;;;;;;;;;4927280;29;19930;-79
2023/03/18 02:39:29;;;;;;;;;;;;;;;;;;4909058;29;19927;-78
2023/03/18 02:42:03;;;;;;;;;;;;;;;;;;4895116;29;19931;-78
2023/03/18 02:44:31;;;;;;;;;;;;;;;;;;4928608;29;19931;-79
2023/03/18 02:47:34;;;;;;;;;;;;;;;;;;4912129;29;19923;-79
2023/03/18 02:50:04;;;;;;;;;;;;;;;;;;4920615;29;19923;-79
2023/03/18 02:52:31;;;;;;;;;;;;;;;;;;4922327;29;20301;-78
2023/03/18 02:55:00;;;;;;;;;;;;;;;;;;4929562;29;20228;-78
2023/03/18 02:57:28;;;;;;;;;;;;;;;;;;4925796;29;19931;-78
2023/03/18 03:00:00;;;;;;;;;;;;;;;;;;4927499;29;20005;-78
2023/03/18 03:02:27;;;;;;;;;;;;;;;;;;4924938;29;19929;-79
2023/03/18 03:04:56;;;;;;;;;;;;;;;;;;4925649;29;19940;-79
2023/03/18 03:07:25;;;;;;;;;;;;;;;;;;4898651;29;19927;-79
2023/03/18 03:09:57;;;;;;;;;;;;;;;;;;4928202;29;20019;-79
2023/03/18 03:12:24;;;;;;;;;;;;;;;;;;4908204;29;20297;-78
2023/03/18 03:15:02;;;;;;;;;;;;;;;;;;4922286;29;20190;-79
2023/03/18 03:17:35;;;;;;;;;;;;;;;;;;4927454;29;20390;-79
2023/03/18 03:20:06;;;;;;;;;;;;;;;;;;4920569;29;19950;-78
2023/03/18 03:22:33;;;;;;;;;;;;;;;;;;4912640;29;19931;-78
2023/03/18 03:25:00;;;;;;;;;;;;;;;;;;4931875;29;20424;-78
2023/03/18 03:27:30;;;;;;;;;;;;;;;;;;4915135;29;19930;-79
2023/03/18 03:29:57;;;;;;;;;;;;;;;;;;4918098;29;19931;-79
2023/03/18 03:32:28;;;;;;;;;;;;;;;;;;4934424;23;19907;-79
2023/03/18 03:34:56;;;;;;;;;;;;;;;;;;4967038;28;19945;-80
2023/03/18 03:37:23;;;;;;;;;;;;;;;;;;4974632;28;19930;-80
2023/03/18 03:39:50;;;;;;;;;;;;;;;;;;4959595;28;19922;-79
2023/03/18 03:42:18;;;;;;;;;;;;;;;;;;4973452;28;19929;-79
2023/03/18 03:44:46;;;;;;;;;;;;;;;;;;4957336;28;20289;-79
2023/03/18 03:47:13;;;;;;;;;;;;;;;;;;4971003;28;19926;-79
2023/03/18 03:49:42;;;;;;;;;;;;;;;;;;4962635;28;19929;-79
2023/03/18 03:52:11;;;;;;;;;;;;;;;;;;4955408;28;19933;-79
2023/03/18 03:54:40;;;;;;;;;;;;;;;;;;4980246;28;19928;-79
2023/03/18 03:57:08;;;;;;;;;;;;;;;;;;4969514;28;20431;-79
2023/03/18 03:59:39;;;;;;;;;;;;;;;;;;4973468;28;19922;-80
2023/03/18 04:02:14;;;;;;;;;;;;;;;;;;4969237;28;19930;-79
2023/03/18 04:04:45;;;;;;;;;;;;;;;;;;4956480;28;19922;-79
2023/03/18 04:07:22;;;;;;;;;;;;;;;;;;4971882;28;19922;-80
2023/03/18 04:09:49;;;;;;;;;;;;;;;;;;4966142;28;19930;-80
2023/03/18 04:12:18;;;;;;;;;;;;;;;;;;4951868;28;19922;-80
2023/03/18 04:14:56;;;;;;;;;;;;;;;;;;4973766;28;19922;-79
2023/03/18 04:17:48;;;;;;;;;;;;;;;;;;4976961;28;19921;-79
2023/03/18 04:20:20;;;;;;;;;;;;;;;;;;4973653;28;19933;-79
2023/03/18 04:22:48;;;;;;;;;;;;;;;;;;4958178;28;19929;-80
2023/03/18 04:25:21;;;;;;;;;;;;;;;;;;4970716;28;19929;-80
2023/03/18 04:27:53;;;;;;;;;;;;;;;;;;4971054;28;19933;-80
2023/03/18 04:30:24;;;;;;;;;;;;;;;;;;4972594;28;19973;-80
2023/03/18 04:33:02;;;;;;;;;;;;;;;;;;4952926;28;19922;-80
2023/03/18 04:35:37;;;;;;;;;;;;;;;;;;4970800;28;20359;-80
2023/03/18 04:38:08;;;;;;;;;;;;;;;;;;4971792;28;19922;-80
2023/03/18 04:40:35;;;;;;;;;;;;;;;;;;4950465;28;19923;-80
2023/03/18 04:43:27;;;;;;;;;;;;;;;;;;4966957;28;19922;-80
2023/03/18 04:45:55;;;;;;;;;;;;;;;;;;4978701;28;19922;-80
2023/03/18 04:48:22;;;;;;;;;;;;;;;;;;4973039;28;19922;-80
2023/03/18 04:50:52;;;;;;;;;;;;;;;;;;4955381;28;20303;-80
2023/03/18 04:53:29;;;;;;;;;;;;;;;;;;4966558;28;19945;-80
2023/03/18 04:55:58;;;;;;;;;;;;;;;;;;4972158;28;19933;-80
2023/03/18 04:58:41;;;;;;;;;;;;;;;;;;4976375;28;19929;-80
2023/03/18 05:01:14;;;;;;;;;;;;;;;;;;4967350;28;20293;-80
2023/03/18 05:03:47;;;;;;;;;;;;;;;;;;4963069;28;19922;-80
2023/03/18 05:06:19;;;;;;;;;;;;;;;;;;4972709;28;19922;-80
2023/03/18 05:09:12;;;;;;;;;;;;;;;;;;4956811;28;19922;-80
2023/03/18 05:11:39;;;;;;;;;;;;;;;;;;4971704;28;19929;-80
2023/03/18 05:14:21;;;;;;;;;;;;;;;;;;4967864;28;20532;-80
2023/03/18 05:16:58;;;;;;;;;;;;;;;;;;4971532;28;20300;-80
2023/03/18 05:19:29;;;;;;;;;;;;;;;;;;4957878;28;19922;-80
2023/03/18 05:22:02;;;;;;;;;;;;;;;;;;4969607;28;19922;-80
2023/03/18 05:24:33;;;;;;;;;;;;;;;;;;4956337;28;20277;-80
2023/03/18 05:27:02;;;;;;;;;;;;;;;;;;4964341;28;20292;-80
2023/03/18 05:29:36;;;;;;;;;;;;;;;;;;4947693;28;20292;-80
2023/03/18 05:32:13;;;;;;;;;;;;;;;;;;4968813;28;19929;-80
2023/03/18 05:34:41;;;;;;;;;;;;;;;;;;4953281;28;19922;-80
2023/03/18 05:37:10;;;;;;;;;;;;;;;;;;4970323;28;19926;-80
2023/03/18 05:39:45;;;;;;;;;;;;;;;;;;4956717;28;20364;-80
2023/03/18 05:42:16;;;;;;;;;;;;;;;;;;4965417;28;19934;-80
2023/03/18 05:44:44;;;;;;;;;;;;;;;;;;4971631;28;19921;-80
2023/03/18 05:47:15;;;;;;;;;;;;;;;;;;4955734;28;20300;-80
2023/03/18 05:49:52;;;;;;;;;;;;;;;;;;4971924;28;19922;-80
2023/03/18 05:52:24;;;;;;;;;;;;;;;;;;4965926;28;19948;-80
2023/03/18 05:54:56;;;;;;;;;;;;;;;;;;4973285;28;20518;-80
2023/03/18 05:57:31;;;;;;;;;;;;;;;;;;4970042;28;19931;-80
2023/03/18 06:00:03;;;;;;;;;;;;;;;;;;4971479;28;19922;-80
2023/03/18 06:02:42;;;;;;;;;;;;;;;;;;4973012;28;19922;-80
2023/03/18 06:05:12;;;;;;;;;;;;;;;;;;4966191;28;19929;-80
2023/03/18 06:07:39;;;;;;;;;;;;;;;;;;4963106;28;19922;-80
2023/03/18 06:10:09;;;;;;;;;;;;;;;;;;4956266;28;20380;-80
2023/03/18 06:12:36;;;;;;;;;;;;;;;;;;4954867;28;20410;-80
2023/03/18 06:15:04;;;;;;;;;;;;;;;;;;4973555;28;20095;-80
2023/03/18 06:17:31;;;;;;;;;;;;;;;;;;4964384;28;20388;-80
2023/03/18 06:19:58;;;;;;;;;;;;;;;;;;4972234;28;20316;-80
2023/03/18 06:22:31;;;;;;;;;;;;;;;;;;4967905;28;20391;-80
2023/03/18 06:24:58;;;;;;;;;;;;;;;;;;4970609;28;20277;-80
2023/03/18 06:27:27;;;;;;;;;;;;;;;;;;4967431;28;19937;-80
2023/03/18 06:30:01;;;;;;;;;;;;;;;;;;4954279;28;19929;-79
2023/03/18 06:32:32;;;;;;;;;;;;;;;;;;4967168;28;19929;-80
2023/03/18 06:35:02;;;;;;;;;;;;;;;;;;4973095;28;19922;-80
2023/03/18 06:37:31;;;;;;;;;;;;;;;;;;4953790;28;19922;-80
2023/03/18 06:39:59;;;;;;;;;;;;;;;;;;4975794;28;19929;-80
2023/03/18 06:42:29;;;;;;;;;;;;;;;;;;4952038;28;20432;-80
2023/03/18 06:45:08;;;;;;;;;;;;;;;;;;4961546;28;19929;-80
2023/03/18 06:47:59;;;;;;;;;;;;;;;;;;4955761;28;19922;-80
2023/03/18 06:50:27;;;;;;;;;;;;;;;;;;4951486;28;20864;-80
2023/03/18 06:52:54;;;;;;;;;;;;;;;;;;4967675;28;19922;-80
2023/03/18 06:55:28;;;;;;;;;;;;;;;;;;4953089;28;19929;-80
2023/03/18 06:57:57;;;;;;;;;;;;;;;;;;4980175;28;20383;-79
2023/03/18 07:00:30;;;;;;;;;;;;;;;;;;4975430;28;19926;-80
2023/03/18 07:02:57;;;;;;;;;;;;;;;;;;4955650;28;19926;-80
2023/03/18 07:05:26;;;;;;;;;;;;;;;;;;4975336;28;20137;-80
2023/03/18 07:07:56;;;;;;;;;;;;;;;;;;4953422;28;19922;-80
2023/03/18 07:10:26;;;;;;;;;;;;;;;;;;4971491;28;19923;-80
2023/03/18 07:12:59;;;;;;;;;;;;;;;;;;4957045;28;19930;-80
2023/03/18 07:15:28;;;;;;;;;;;;;;;;;;4975837;28;19933;-80
2023/03/18 07:18:01;;;;;;;;;;;;;;;;;;4975395;28;19922;-80
2023/03/18 07:20:31;;;;;;;;;;;;;;;;;;4973190;28;19922;-80
2023/03/18 07:23:02;;;;;;;;;;;;;;;;;;4970635;28;20490;-80
2023/03/18 07:25:29;;;;;;;;;;;;;;;;;;4972822;28;19922;-80
2023/03/18 07:28:08;;;;;;;;;;;;;;;;;;4954694;28;20016;-80
2023/03/18 07:30:35;;;;;;;;;;;;;;;;;;4958155;28;20376;-80
2023/03/18 07:33:03;;;;;;;;;;;;;;;;;;4974146;28;19929;-80
2023/03/18 07:35:33;;;;;;;;;;;;;;;;;;4956556;28;20380;-80
2023/03/18 07:38:00;;;;;;;;;;;;;;;;;;4955793;28;19945;-80
2023/03/18 07:40:27;;;;;;;;;;;;;;;;;;4959435;28;20288;-80
2023/03/18 07:42:54;;;;;;;;;;;;;;;;;;4972860;28;19922;-81
2023/03/18 07:45:25;;;;;;;;;;;;;;;;;;4973209;28;19922;-80
2023/03/18 07:47:52;;;;;;;;;;;;;;;;;;4967892;28;19922;-80
2023/03/18 07:50:19;;;;;;;;;;;;;;;;;;4974033;28;19929;-80
2023/03/18 07:52:47;;;;;;;;;;;;;;;;;;4969238;28;19929;-80
2023/03/18 07:55:14;;;;;;;;;;;;;;;;;;4958196;28;19930;-81
2023/03/18 07:57:41;;;;;;;;;;;;;;;;;;4969753;28;19929;-81
2023/03/18 08:00:13;;;;;;;;;;;;;;;;;;4957409;28;19922;-81
2023/03/18 08:02:41;;;;;;;;;;;;;;;;;;4968086;28;20384;-80
2023/03/18 08:05:08;;;;;;;;;;;;;;;;;;4962868;28;19921;-80
2023/03/18 08:07:35;;;;;;;;;;;;;;;;;;4964678;28;19922;-80
2023/03/18 08:10:07;;;;;;;;;;;;;;;;;;4969830;28;19929;-82
2023/03/18 08:12:39;;;;;;;;;;;;;;;;;;4969927;28;19922;-80
2023/03/18 08:15:08;;;;;;;;;;;;;;;;;;4976083;28;19922;-81
2023/03/18 08:17:45;;;;;;;;;;;;;;;;;;4971090;28;19941;-80
2023/03/18 08:20:18;;;;;;;;;;;;;;;;;;4972053;28;19922;-80
2023/03/18 08:22:45;;;;;;;;;;;;;;;;;;4969234;28;19926;-81
2023/03/18 08:25:15;;;;;;;;;;;;;;;;;;4980448;28;19929;-81
2023/03/18 08:27:42;;;;;;;;;;;;;;;;;;4968360;28;19921;-81
2023/03/18 08:30:09;;;;;;;;;;;;;;;;;;4970559;28;19926;-80
2023/03/18 08:32:37;;;;;;;;;;;;;;;;;;4956984;28;21000;-81
2023/03/18 08:35:06;;;;;;;;;;;;;;;;;;4976833;28;19922;-81
2023/03/18 08:37:33;;;;;;;;;;;;;;;;;;4949212;28;19922;-81
2023/03/18 08:40:02;;;;;;;;;;;;;;;;;;4974940;28;19929;-80
2023/03/18 08:42:29;;;;;;;;;;;;;;;;;;4972507;28;19926;-81
2023/03/18 08:44:56;;;;;;;;;;;;;;;;;;4974058;28;19926;-81
2023/03/18 08:47:24;;;;;;;;;;;;;;;;;;4975520;28;19933;-81
2023/03/18 08:49:50;;;;;;;;;;;;;;;;;;4958182;28;19926;-81
2023/03/18 08:52:19;;;;;;;;;;;;;;;;;;4971387;28;19949;-81
2023/03/18 08:54:48;;;;;;;;;;;;;;;;;;4977207;28;19926;-81
2023/03/18 08:57:15;;;;;;;;;;;;;;;;;;4972166;28;20399;-81
2023/03/18 08:59:42;;;;;;;;;;;;;;;;;;4984931;28;19922;-81
2023/03/18 09:02:12;;;;;;;;;;;;;;;;;;4975783;28;19929;-81
2023/03/18 09:04:39;;;;;;;;;;;;;;;;;;4976020;28;19929;-81
2023/03/18 09:07:11;;;;;;;;;;;;;;;;;;4949292;28;20387;-81
2023/03/18 09:09:40;;;;;;;;;;;;;;;;;;4973955;28;20311;-81
2023/03/18 09:12:07;;;;;;;;;;;;;;;;;;4953296;28;19922;-81
2023/03/18 09:14:35;;;;;;;;;;;;;;;;;;4979287;28;19937;-81
2023/03/18 09:17:02;;;;;;;;;;;;;;;;;;4985009;28;19922;-81
2023/03/18 09:19:29;;;;;;;;;;;;;;;;;;4985205;28;19922;-81
2023/03/18 09:21:56;;;;;;;;;;;;;;;;;;4951576;28;19923;-81
2023/03/18 09:24:23;;;;;;;;;;;;;;;;;;4966005;28;19922;-81
2023/03/18 09:26:58;;;;;;;;;;;;;;;;;;4973526;28;19949;-81
2023/03/18 09:29:26;;;;;;;;;;;;;;;;;;4976980;28;19922;-81
2023/03/18 09:31:53;;;;;;;;;;;;;;;;;;4970381;28;19922;-81
2023/03/18 09:34:20;;;;;;;;;;;;;;;;;;4965785;23;19922;-79
2023/03/18 09:36:51;;;;;;;;;;;;;;;;;;4942994;29;19922;-79
2023/03/18 09:39:18;;;;;;;;;;;;;;;;;;4950835;28;20372;-79
2023/03/18 09:41:47;;;;;;;;;;;;;;;;;;4943613;29;19927;-79
2023/03/18 09:44:23;;;;;;;;;;;;;;;;;;4945296;28;19922;-79
2023/03/18 09:46:57;;;;;;;;;;;;;;;;;;4950470;29;19941;-80
2023/03/18 09:49:30;;;;;;;;;;;;;;;;;;4949649;29;19933;-79
2023/03/18 09:52:04;;;;;;;;;;;;;;;;;;4946333;29;19995;-79
2023/03/18 09:54:32;;;;;;;;;;;;;;;;;;4947311;29;19930;-79
2023/03/18 09:57:02;;;;;;;;;;;;;;;;;;4941933;29;19931;-79
2023/03/18 09:59:31;;;;;;;;;;;;;;;;;;4949786;29;20389;-79
2023/03/18 10:01:58;;;;;;;;;;;;;;;;;;4934466;29;19935;-79
2023/03/18 10:04:30;;;;;;;;;;;;;;;;;;4951795;29;19938;-80
2023/03/18 10:07:00;;;;;;;;;;;;;;;;;;4930178;29;19929;-80
2023/03/18 10:09:27;;;;;;;;;;;;;;;;;;4946794;29;19930;-80
2023/03/18 10:11:59;;;;;;;;;;;;;;;;;;4944026;29;19953;-80
2023/03/18 10:14:34;;;;;;;;;;;;;;;;;;4928296;29;19927;-79
2023/03/18 10:17:03;;;;;;;;;;;;;;;;;;4949134;29;20299;-79
2023/03/18 10:19:33;;;;;;;;;;;;;;;;;;4944259;29;19930;-80
2023/03/18 10:22:03;;;;;;;;;;;;;;;;;;4948454;29;19946;-79
2023/03/18 10:24:35;;;;;;;;;;;;;;;;;;4925142;29;19929;-79
2023/03/18 10:27:02;;;;;;;;;;;;;;;;;;4927452;29;19926;-79
2023/03/18 10:29:37;;;;;;;;;;;;;;;;;;4941831;29;20416;-80
2023/03/18 10:32:12;;;;;;;;;;;;;;;;;;4949102;29;19922;-79
2023/03/18 10:34:46;;;;;;;;;;;;;;;;;;4945168;29;19930;-79
2023/03/18 10:37:17;;;;;;;;;;;;;;;;;;4946862;29;19922;-80
2023/03/18 10:39:48;;;;;;;;;;;;;;;;;;4941470;29;20308;-79
2023/03/18 10:42:19;;;;;;;;;;;;;;;;;;4949650;28;19922;-79
2023/03/18 10:44:48;;;;;;;;;;;;;;;;;;4945645;29;19926;-79
2023/03/18 10:47:18;;;;;;;;;;;;;;;;;;4947876;29;20293;-79
2023/03/18 10:49:52;;;;;;;;;;;;;;;;;;4934469;28;19929;-79
2023/03/18 10:52:25;;;;;;;;;;;;;;;;;;4944746;29;19954;-79
2023/03/18 10:54:57;;;;;;;;;;;;;;;;;;4947219;29;19926;-78
2023/03/18 10:57:24;;;;;;;;;;;;;;;;;;4945012;29;19933;-80
2023/03/18 10:59:52;;;;;;;;;;;;;;;;;;4945518;29;19930;-80
2023/03/18 11:02:22;;;;;;;;;;;;;;;;;;4938841;28;19938;-80
2023/03/18 11:04:50;;;;;;;;;;;;;;;;;;4933591;29;19929;-80
2023/03/18 11:07:22;;;;;;;;;;;;;;;;;;4944313;28;19930;-80
2023/03/18 11:09:49;;;;;;;;;;;;;;;;;;4945865;28;19923;-80
2023/03/18 11:12:18;;;;;;;;;;;;;;;;;;4947870;29;19927;-80
2023/03/18 11:14:47;;;;;;;;;;;;;;;;;;4947303;28;19927;-80
2023/03/18 11:17:22;;;;;;;;;;;;;;;;;;4942396;28;19942;-80
2023/03/18 11:19:49;;;;;;;;;;;;;;;;;;4947447;28;19922;-80
2023/03/18 11:22:20;;;;;;;;;;;;;;;;;;4949021;29;19926;-80
2023/03/18 11:25:00;;;;;;;;;;;;;;;;;;4930081;29;19942;-80
2023/03/18 11:27:29;;;;;;;;;;;;;;;;;;4941198;28;19927;-80
2023/03/18 11:29:59;;;;;;;;;;;;;;;;;;4944967;29;19929;-81
2023/03/18 11:32:28;;;;;;;;;;;;;;;;;;4948433;29;19949;-81
2023/03/18 11:34:59;;;;;;;;;;;;;;;;;;4944723;29;19931;-80
2023/03/18 11:37:32;;;;;;;;;;;;;;;;;;4946925;29;20384;-80
2023/03/18 11:40:06;;;;;;;;;;;;;;;;;;4949334;28;19926;-81
2023/03/18 11:42:39;;;;;;;;;;;;;;;;;;4947320;29;19937;-80
2023/03/18 11:45:08;;;;;;;;;;;;;;;;;;4961213;28;19930;-80
2023/03/18 11:47:37;;;;;;;;;;;;;;;;;;4950354;29;21178;-80
2023/03/18 11:50:05;;;;;;;;;;;;;;;;;;4940169;29;19926;-80
2023/03/18 11:52:34;;;;;;;;;;;;;;;;;;4950085;28;19929;-80
2023/03/18 11:55:03;;;;;;;;;;;;;;;;;;4952773;28;19930;-80
2023/03/18 11:57:35;;;;;;;;;;;;;;;;;;4949471;29;19922;-80
2023/03/18 12:00:16;;;;;;;;;;;;;;;;;;4949180;28;20393;-81
2023/03/18 12:02:49;;;;;;;;;;;;;;;;;;4931841;29;19949;-80
2023/03/18 12:05:32;;;;;;;;;;;;;;;;;;4941886;29;20029;-80
2023/03/18 12:08:01;;;;;;;;;;;;;;;;;;4948811;29;19923;-81
2023/03/18 12:10:31;;;;;;;;;;;;;;;;;;4943136;29;19930;-80
2023/03/18 12:13:02;;;;;;;;;;;;;;;;;;4946713;29;19922;-80
2023/03/18 12:15:35;;;;;;;;;;;;;;;;;;4943288;29;19923;-80
2023/03/18 12:18:06;;;;;;;;;;;;;;;;;;4945620;28;20431;-80
2023/03/18 12:20:44;;;;;;;;;;;;;;;;;;4941139;29;19930;-80
2023/03/18 12:23:13;;;;;;;;;;;;;;;;;;4949515;29;19934;-80
2023/03/18 12:25:46;;;;;;;;;;;;;;;;;;4946460;29;19930;-79
2023/03/18 12:28:18;;;;;;;;;;;;;;;;;;4951966;29;20204;-80
2023/03/18 12:30:49;;;;;;;;;;;;;;;;;;4951459;29;19923;-80
2023/03/18 12:33:27;;;;;;;;;;;;;;;;;;4931099;29;19938;-80
2023/03/18 12:35:54;;;;;;;;;;;;;;;;;;4946526;29;19930;-80
2023/03/18 12:38:37;;;;;;;;;;;;;;;;;;4948114;29;19938;-79
2023/03/18 12:41:06;;;;;;;;;;;;;;;;;;4933223;29;19922;-80
2023/03/18 12:43:41;;;;;;;;;;;;;;;;;;4951542;29;19923;-79
2023/03/18 12:46:18;;;;;;;;;;;;;;;;;;4937525;29;19923;-80
2023/03/18 12:48:49;;;;;;;;;;;;;;;;;;4944455;29;19930;-80
2023/03/18 12:51:17;;;;;;;;;;;;;;;;;;4952227;28;19929;-79
2023/03/18 12:53:46;;;;;;;;;;;;;;;;;;4947780;29;19922;-80
2023/03/18 12:56:14;;;;;;;;;;;;;;;;;;4951979;29;19922;-79
2023/03/18 12:58:45;;;;;;;;;;;;;;;;;;4941370;29;19930;-80
2023/03/18 13:01:16;;;;;;;;;;;;;;;;;;4936204;29;20319;-80
2023/03/18 13:03:50;;;;;;;;;;;;;;;;;;4948062;29;19934;-80
2023/03/18 13:06:18;;;;;;;;;;;;;;;;;;4951084;29;19926;-80
2023/03/18 13:08:52;;;;;;;;;;;;;;;;;;4949007;29;20395;-80
2023/03/18 13:11:31;;;;;;;;;;;;;;;;;;4945569;29;19930;-78
2023/03/18 13:14:00;;;;;;;;;;;;;;;;;;4949600;29;19926;-79
2023/03/18 13:16:26;;;;;;;;;;;;;;;;;;4951014;29;19922;-79
2023/03/18 13:18:55;;;;;;;;;;;;;;;;;;4933594;29;19923;-79
2023/03/18 13:21:25;;;;;;;;;;;;;;;;;;4945995;28;19937;-79
2023/03/18 13:24:02;;;;;;;;;;;;;;;;;;4949353;29;19945;-80
2023/03/18 13:26:32;;;;;;;;;;;;;;;;;;4941467;28;19934;-79
2023/03/18 13:29:04;;;;;;;;;;;;;;;;;;4950167;29;20380;-80
2023/03/18 13:31:34;;;;;;;;;;;;;;;;;;4947853;29;19923;-80
2023/03/18 13:34:25;;;;;;;;;;;;;;;;;;4950206;29;19938;-80
2023/03/18 13:37:00;;;;;;;;;;;;;;;;;;4951027;29;19929;-80
2023/03/18 13:39:45;;;;;;;;;;;;;;;;;;4949912;29;19930;-80
2023/03/18 13:42:14;;;;;;;;;;;;;;;;;;4944648;29;20501;-80
2023/03/18 13:44:42;;;;;;;;;;;;;;;;;;4947283;29;19945;-80
2023/03/18 13:47:14;;;;;;;;;;;;;;;;;;4948074;29;20449;-80
2023/03/18 13:49:43;;;;;;;;;;;;;;;;;;4949132;29;19922;-80
2023/03/18 13:52:23;;;;;;;;;;;;;;;;;;4949372;29;19923;-80
2023/03/18 13:54:52;;;;;;;;;;;;;;;;;;4947216;29;19929;-80
2023/03/18 13:57:34;;;;;;;;;;;;;;;;;;4944415;29;20312;-80
2023/03/18 14:00:11;;;;;;;;;;;;;;;;;;4943332;29;19922;-80
2023/03/18 14:02:46;;;;;;;;;;;;;;;;;;4948937;28;20389;-80
2023/03/18 14:05:28;;;;;;;;;;;;;;;;;;4946485;29;20419;-80
2023/03/18 14:07:56;;;;;;;;;;;;;;;;;;4949163;28;20368;-80
2023/03/18 14:10:23;;;;;;;;;;;;;;;;;;4945171;29;20396;-80
2023/03/18 14:12:50;;;;;;;;;;;;;;;;;;4944752;29;19946;-80
2023/03/18 14:15:37;;;;;;;;;;;;;;;;;;4942767;29;19922;-80
2023/03/18 14:18:04;;;;;;;;;;;;;;;;;;4944057;29;19923;-80
2023/03/18 14:20:38;;;;;;;;;;;;;;;;;;4934603;29;19930;-80
2023/03/18 14:23:23;;;;;;;;;;;;;;;;;;4945168;29;20308;-80
2023/03/18 14:25:55;;;;;;;;;;;;;;;;;;4947216;29;19922;-80
2023/03/18 14:28:31;;;;;;;;;;;;;;;;;;4940606;29;19923;-80
2023/03/18 14:30:59;;;;;;;;;;;;;;;;;;4945631;29;19923;-80
2023/03/18 14:33:44;;;;;;;;;;;;;;;;;;4943658;29;19931;-80
2023/03/18 14:36:11;;;;;;;;;;;;;;;;;;4939154;28;19923;-80
2023/03/18 14:38:42;;;;;;;;;;;;;;;;;;4943215;29;20385;-79
2023/03/18 14:41:15;;;;;;;;;;;;;;;;;;4944066;29;19930;-80
2023/03/18 14:43:49;;;;;;;;;;;;;;;;;;4941263;29;20381;-80
2023/03/18 14:46:20;;;;;;;;;;;;;;;;;;4945347;29;19927;-80
2023/03/18 14:48:53;;;;;;;;;;;;;;;;;;4925059;29;19927;-80
2023/03/18 14:51:21;;;;;;;;;;;;;;;;;;4954706;28;19922;-80
2023/03/18 14:53:50;;;;;;;;;;;;;;;;;;4939802;29;19930;-80
2023/03/18 14:56:18;;;;;;;;;;;;;;;;;;4944074;29;19922;-80
2023/03/18 14:58:45;;;;;;;;;;;;;;;;;;4942491;29;19923;-80
2023/03/18 15:01:14;;;;;;;;;;;;;;;;;;4945881;29;19933;-80
2023/03/18 15:03:42;;;;;;;;;;;;;;;;;;4949047;29;19945;-80
2023/03/18 15:06:13;;;;;;;;;;;;;;;;;;4951203;29;19931;-80
2023/03/18 15:08:40;;;;;;;;;;;;;;;;;;4947046;29;19923;-80
2023/03/18 15:11:10;;;;;;;;;;;;;;;;;;4950400;28;19927;-80
2023/03/18 15:13:41;;;;;;;;;;;;;;;;;;4947799;29;20418;-81
2023/03/18 15:16:10;;;;;;;;;;;;;;;;;;4948332;29;19942;-80
2023/03/18 15:18:38;;;;;;;;;;;;;;;;;;4932943;29;19941;-80
2023/03/18 15:21:08;;;;;;;;;;;;;;;;;;4952998;29;19937;-80
2023/03/18 15:23:38;;;;;;;;;;;;;;;;;;4965687;29;19926;-81
2023/03/18 15:26:06;;;;;;;;;;;;;;;;;;4960829;29;19923;-80
2023/03/18 15:28:33;;;;;;;;;;;;;;;;;;4952579;29;19945;-80
2023/03/18 15:31:04;;;;;;;;;;;;;;;;;;4952847;29;20407;-80
2023/03/18 15:33:34;;;;;;;;;;;;;;;;;;4966552;23;19929;-81
2023/03/18 15:36:03;;;;;;;;;;;;;;;;;;4964461;28;19929;-81
2023/03/18 15:38:30;;;;;;;;;;;;;;;;;;4953992;28;19921;-81
2023/03/18 15:40:58;;;;;;;;;;;;;;;;;;4967609;28;20388;-81
2023/03/18 15:43:28;;;;;;;;;;;;;;;;;;4963835;28;20419;-81
2023/03/18 15:45:58;;;;;;;;;;;;;;;;;;4967399;28;19923;-81
2023/03/18 15:48:33;;;;;;;;;;;;;;;;;;4952427;28;19926;-81
2023/03/18 15:51:07;;;;;;;;;;;;;;;;;;4962273;28;19922;-81
2023/03/18 15:53:34;;;;;;;;;;;;;;;;;;4958119;28;19929;-81
2023/03/18 15:56:07;;;;;;;;;;;;;;;;;;4968358;28;19922;-81
2023/03/18 15:58:37;;;;;;;;;;;;;;;;;;4951111;28;19933;-81
2023/03/18 16:01:04;;;;;;;;;;;;;;;;;;4963008;28;19922;-81
2023/03/18 16:03:34;;;;;;;;;;;;;;;;;;4962828;28;19922;-81
2023/03/18 16:06:01;;;;;;;;;;;;;;;;;;4969927;28;19929;-81
2023/03/18 16:08:29;;;;;;;;;;;;;;;;;;4964781;28;20415;-81
2023/03/18 16:10:57;;;;;;;;;;;;;;;;;;4951414;28;19929;-81
2023/03/18 16:13:24;;;;;;;;;;;;;;;;;;4965307;28;20300;-81
2023/03/18 16:15:52;;;;;;;;;;;;;;;;;;4966120;28;19930;-81
2023/03/18 16:18:19;;;;;;;;;;;;;;;;;;4963076;28;20419;-81
2023/03/18 16:20:49;;;;;;;;;;;;;;;;;;4956257;28;19926;-82
2023/03/18 16:23:17;;;;;;;;;;;;;;;;;;4953328;28;19926;-81
2023/03/18 16:25:47;;;;;;;;;;;;;;;;;;4966140;28;19922;-81
2023/03/18 16:28:19;;;;;;;;;;;;;;;;;;4965572;28;19926;-82
2023/03/18 16:30:46;;;;;;;;;;;;;;;;;;4962955;28;19929;-82
2023/03/18 16:33:14;;;;;;;;;;;;;;;;;;4965557;28;19926;-81
2023/03/18 16:35:41;;;;;;;;;;;;;;;;;;4968644;28;19922;-82
2023/03/18 16:38:13;;;;;;;;;;;;;;;;;;4958740;28;19922;-81
2023/03/18 16:40:40;;;;;;;;;;;;;;;;;;4960452;28;19937;-84
2023/03/18 16:43:16;;;;;;;;;;;;;;;;;;4960287;28;20303;-81
2023/03/18 16:45:46;;;;;;;;;;;;;;;;;;4966670;28;19929;-81
2023/03/18 16:48:13;;;;;;;;;;;;;;;;;;4966032;28;19925;-81
2023/03/18 16:50:41;;;;;;;;;;;;;;;;;;4966212;28;19929;-81
2023/03/18 16:53:19;;;;;;;;;;;;;;;;;;4965479;28;19922;-81
2023/03/18 16:55:46;;;;;;;;;;;;;;;;;;4962281;28;20444;-81
2023/03/18 16:58:16;;;;;;;;;;;;;;;;;;4960461;28;19922;-82
2023/03/18 17:00:46;;;;;;;;;;;;;;;;;;4970307;28;19922;-81
2023/03/18 17:03:17;;;;;;;;;;;;;;;;;;4954510;28;19930;-81
2023/03/18 17:05:46;;;;;;;;;;;;;;;;;;4968874;28;19922;-81
2023/03/18 17:08:13;;;;;;;;;;;;;;;;;;4963986;28;19926;-81
2023/03/18 17:10:43;;;;;;;;;;;;;;;;;;4953592;28;19922;-81